Time;durP1;ratioP1;P1;durP2;ratioP2;P2;SDS_P1;SDS_P2;PMS_P1;PMS_P2;Temp;Humidity;BMP_temperature;BMP_pressure;BME280_temperature;BME280_humidity;BME280_pressure;Samples;Min_cycle;Max_cycle;Signal;HPM_P1;HPM_P2
2022/07/29 00:04:59;;;;;;;3.13;1.00;;;;;;;18.06;75.57;98406.38;15272610;19;20035;-61
2022/07/29 00:10:07;;;;;;;3.22;0.80;;;;;;;17.98;77.03;98410.16;15277847;19;20021;-63
2022/07/29 00:15:13;;;;;;;5.65;0.80;;;;;;;17.93;77.29;98385.38;15269397;19;20021;-62
2022/07/29 00:20:18;;;;;;;4.13;0.80;;;;;;;17.89;77.97;98388.75;15274499;19;20022;-63
2022/07/29 00:25:26;;;;;;;4.57;0.90;;;;;;;17.84;79.05;98400.28;15275756;19;20039;-62
2022/07/29 00:30:31;;;;;;;3.00;0.80;;;;;;;17.76;79.43;98387.69;15276144;19;20047;-61
2022/07/29 00:35:48;;;;;;;3.45;0.85;;;;;;;17.73;79.92;98388.09;15269562;19;20014;-61
2022/07/29 00:40:55;;;;;;;3.03;0.68;;;;;;;17.68;80.56;98387.91;15276177;19;20769;-61
2022/07/29 00:46:01;;;;;;;3.63;0.70;;;;;;;17.65;80.83;98378.25;15270488;19;20014;-61
2022/07/29 00:51:07;;;;;;;3.25;0.80;;;;;;;17.62;81.35;98372.38;15291115;19;20035;-61
2022/07/29 00:56:15;;;;;;;8.02;0.60;;;;;;;17.61;81.15;98381.59;15286220;19;20397;-62
2022/07/29 01:01:20;;;;;;;2.92;0.80;;;;;;;17.52;84.28;98379.06;15289976;19;20011;-62
2022/07/29 01:06:27;;;;;;;3.35;1.00;;;;;;;17.48;84.39;98372.34;15281321;19;20031;-62
2022/07/29 01:11:36;;;;;;;5.38;0.82;;;;;;;17.45;85.75;98366.50;15287242;19;20034;-61
2022/07/29 01:16:53;;;;;;;3.30;0.98;;;;;;;17.42;85.09;98367.75;15282570;19;20015;-61
2022/07/29 01:22:01;;;;;;;3.45;0.75;;;;;;;17.38;86.67;98367.34;15281073;19;20386;-62
2022/07/29 01:27:27;;;;;;;6.18;1.33;;;;;;;17.35;87.83;98367.72;15286913;19;20018;-62
2022/07/29 01:32:39;;;;;;;3.22;0.90;;;;;;;17.29;89.19;98365.00;15286169;19;20018;-60
2022/07/29 01:37:49;;;;;;;2.50;0.90;;;;;;;17.21;89.63;98366.88;15282519;19;21186;-62
2022/07/29 01:42:59;;;;;;;1.92;0.80;;;;;;;17.17;90.70;98360.16;15280580;19;20018;-62
2022/07/29 01:48:14;;;;;;;2.60;0.90;;;;;;;17.12;92.70;98343.59;15282321;19;20015;-61
2022/07/29 01:53:28;;;;;;;3.70;0.88;;;;;;;17.04;94.65;98343.78;15278795;19;20018;-61
2022/07/29 01:58:44;;;;;;;4.35;0.90;;;;;;;16.95;96.61;98332.25;15279168;19;20018;-61
2022/07/29 02:03:53;;;;;;;2.40;0.90;;;;;;;16.87;99.00;98327.81;15283948;19;20480;-61
2022/07/29 02:08:58;;;;;;;4.40;1.00;;;;;;;16.76;100.00;98325.66;15283077;19;20374;-62
2022/07/29 02:14:04;;;;;;;2.20;0.90;;;;;;;16.70;100.00;98321.03;15279605;19;20058;-60
2022/07/29 02:19:14;;;;;;;3.10;0.98;;;;;;;16.68;100.00;98323.13;15281528;19;20066;-62
2022/07/29 02:24:21;;;;;;;2.28;0.82;;;;;;;16.60;100.00;98341.31;15274409;19;20018;-63
2022/07/29 02:29:28;;;;;;;1.95;0.80;;;;;;;16.53;100.00;98336.88;15285323;19;20731;-61
2022/07/29 02:34:38;;;;;;;4.18;1.10;;;;;;;16.44;100.00;98345.22;15282261;19;20014;-62
2022/07/29 02:39:46;;;;;;;2.88;0.90;;;;;;;16.32;100.00;98342.19;15285655;19;20027;-62
2022/07/29 02:44:51;;;;;;;3.33;0.80;;;;;;;16.29;100.00;98336.31;15276570;19;20010;-61
2022/07/29 02:50:04;;;;;;;3.08;0.90;;;;;;;16.25;100.00;98335.91;15283408;19;20010;-59
2022/07/29 02:55:17;;;;;;;4.65;0.80;;;;;;;16.22;100.00;98336.28;15275232;19;20113;-62
2022/07/29 03:00:24;;;;;;;3.38;0.95;;;;;;;16.14;100.00;98331.84;15279928;19;20014;-62
2022/07/29 03:05:32;;;;;;;2.25;0.80;;;;;;;16.08;100.00;98331.81;15280669;19;20039;-62
2022/07/29 03:10:39;;;;;;;3.85;0.88;;;;;;;16.02;100.00;98325.28;15277980;19;20002;-61
2022/07/29 03:15:46;;;;;;;3.30;0.90;;;;;;;15.96;100.00;98316.06;15273598;19;20018;-61
2022/07/29 03:20:54;;;;;;;2.70;0.82;;;;;;;15.87;100.00;98328.13;15278216;19;20122;-60
2022/07/29 03:25:59;;;;;;;4.57;1.00;;;;;;;15.77;100.00;98328.41;15269460;19;20006;-61
2022/07/29 03:31:05;;;;;;;4.05;1.15;;;;;;;15.72;100.00;98337.16;15275392;19;20047;-59
2022/07/29 03:36:15;;;;;;;4.00;0.77;;;;;;;15.68;100.00;98335.91;15271387;19;20043;-60
2022/07/29 03:41:22;;;;;;;4.25;1.00;;;;;;;15.64;100.00;98333.78;15273974;19;20043;-59
2022/07/29 03:46:31;;;;;;;2.30;0.88;;;;;;;15.60;100.00;98335.19;15271830;19;21255;-62
2022/07/29 03:51:39;;;;;;;2.17;1.00;;;;;;;15.56;100.00;98332.03;15275088;19;20011;-61
2022/07/29 03:56:48;;;;;;;4.75;0.80;;;;;;;15.54;100.00;98342.25;15273490;19;20015;-59
2022/07/29 04:01:54;;;;;;;3.70;0.90;;;;;;;15.52;100.00;98344.31;15269856;19;20015;-61
2022/07/29 04:07:02;;;;;;;3.55;0.85;;;;;;;15.52;100.00;98352.44;15273645;19;20356;-62
2022/07/29 04:12:08;;;;;;;3.40;0.93;;;;;;;15.48;100.00;98349.28;15271156;19;20028;-61
2022/07/29 04:17:13;;;;;;;2.20;0.95;;;;;;;15.48;100.00;98348.44;15274039;19;20010;-61
2022/07/29 04:22:21;;;;;;;2.38;0.98;;;;;;;15.45;100.00;98346.97;15277537;19;20023;-61
2022/07/29 04:27:26;;;;;;;4.82;1.05;;;;;;;15.43;100.00;98353.63;15286722;19;20395;-62
2022/07/29 04:32:31;;;;;;;3.45;0.95;;;;;;;15.42;100.00;98347.34;15283067;19;20345;-62
2022/07/29 04:37:40;;;;;;;4.45;1.00;;;;;;;15.43;100.00;98357.16;15290289;19;20500;-61
2022/07/29 04:42:45;;;;;;;2.38;0.93;;;;;;;15.40;100.00;98360.28;15286785;19;20374;-62
2022/07/29 04:47:53;;;;;;;1.95;1.08;;;;;;;15.41;100.00;98361.94;15284742;19;20111;-62
2022/07/29 04:53:01;;;;;;;3.03;0.95;;;;;;;15.40;100.00;98352.97;15282478;19;20041;-62
2022/07/29 04:58:05;;;;;;;2.75;0.90;;;;;;;15.44;100.00;98344.44;15287465;19;20507;-62
2022/07/29 05:03:11;;;;;;;4.50;0.80;;;;;;;15.53;100.00;98332.41;15279212;19;20017;-62
2022/07/29 05:08:18;;;;;;;2.83;0.90;;;;;;;15.63;100.00;98337.53;15285473;19;20022;-62
2022/07/29 05:13:23;;;;;;;6.80;1.10;;;;;;;15.72;100.00;98344.47;15287540;19;20007;-61
2022/07/29 05:18:29;;;;;;;5.30;1.10;;;;;;;15.81;100.00;98339.75;15288934;19;20443;-61
2022/07/29 05:23:37;;;;;;;5.50;1.00;;;;;;;15.89;100.00;98345.06;15281704;19;20039;-62
2022/07/29 05:28:43;;;;;;;2.13;1.00;;;;;;;15.95;100.00;98349.69;15285160;19;20053;-62
2022/07/29 05:33:48;;;;;;;5.57;1.00;;;;;;;16.02;100.00;98347.03;15284490;19;20026;-62
2022/07/29 05:38:56;;;;;;;1.88;0.88;;;;;;;16.11;100.00;98355.88;15279538;19;20117;-64
2022/07/29 05:44:02;;;;;;;2.35;0.93;;;;;;;16.16;100.00;98346.09;15283996;19;20051;-63
2022/07/29 05:49:07;;;;;;;3.28;0.80;;;;;;;16.26;100.00;98353.88;15288719;19;20043;-63
2022/07/29 05:54:15;;;;;;;5.63;1.20;;;;;;;16.39;100.00;98342.22;15283871;19;20014;-64
2022/07/29 05:59:20;;;;;;;4.93;1.13;;;;;;;16.48;100.00;98338.31;15282064;19;20027;-63
2022/07/29 06:04:31;;;;;;;2.17;0.95;;;;;;;16.60;100.00;98337.72;15283388;19;20035;-62
2022/07/29 06:09:38;;;;;;;3.38;1.10;;;;;;;16.69;100.00;98341.13;15273901;19;20368;-65
2022/07/29 06:14:44;;;;;;;1.88;0.80;;;;;;;16.75;100.00;98335.72;15283045;19;20043;-65
2022/07/29 06:19:49;;;;;;;2.53;1.05;;;;;;;16.82;100.00;98335.75;15279675;19;20022;-64
2022/07/29 06:24:57;;;;;;;3.25;1.00;;;;;;;16.90;100.00;98340.97;15280766;19;20010;-65
2022/07/29 06:30:03;;;;;;;3.72;1.00;;;;;;;17.03;100.00;98353.00;15275371;19;20014;-62
2022/07/29 06:35:10;;;;;;;6.25;1.17;;;;;;;17.16;100.00;98353.03;15279896;19;20011;-61
2022/07/29 06:45:56;;;;;;;8.50;1.40;;;;;;;17.49;100.00;98365.03;15276024;19;20025;-62
2022/07/29 06:51:02;;;;;;;6.50;1.40;;;;;;;17.64;100.00;98357.50;15281390;19;20010;-63
2022/07/29 06:56:12;;;;;;;2.15;1.10;;;;;;;17.84;100.00;98359.41;15276099;19;20019;-64
2022/07/29 07:01:17;;;;;;;4.10;1.25;;;;;;;18.00;100.00;98375.34;15273949;19;20047;-64
2022/07/29 07:06:22;;;;;;;6.70;1.30;;;;;;;18.16;100.00;98368.63;15279585;19;20497;-64
2022/07/29 07:11:31;;;;;;;5.10;1.30;;;;;;;18.38;100.00;98371.13;15275505;19;20022;-62
2022/07/29 07:16:36;;;;;;;5.82;1.50;;;;;;;18.52;100.00;98361.00;15278372;19;20051;-63
2022/07/29 07:21:41;;;;;;;5.47;1.33;;;;;;;18.75;100.00;98355.06;15276523;19;20010;-63
2022/07/29 07:26:49;;;;;;;3.80;1.40;;;;;;;19.01;100.00;98356.00;15276689;19;20014;-62
2022/07/29 07:31:54;;;;;;;4.85;1.40;;;;;;;19.22;100.00;98345.81;15277539;19;20014;-63
2022/07/29 07:37:05;;;;;;;4.70;1.25;;;;;;;19.48;100.00;98338.47;15270830;19;20086;-65
2022/07/29 07:42:12;;;;;;;3.00;1.35;;;;;;;19.73;98.30;98343.13;15276569;19;20014;-62
2022/07/29 07:47:19;;;;;;;2.60;1.30;;;;;;;19.94;95.41;98337.28;15272408;19;20018;-61
2022/07/29 07:52:26;;;;;;;3.03;1.30;;;;;;;20.16;92.70;98339.63;15277890;19;21225;-67
2022/07/29 07:57:34;;;;;;;5.97;1.13;;;;;;;20.36;92.17;98330.38;15292618;19;20015;-64
2022/07/29 08:02:39;;;;;;;9.65;1.50;;;;;;;20.59;87.67;98329.69;15291942;19;20349;-65
2022/07/29 08:07:44;;;;;;;3.60;1.02;;;;;;;20.75;85.01;98323.63;15286797;19;20019;-63
2022/07/29 08:12:52;;;;;;;5.03;1.10;;;;;;;20.93;83.23;98325.50;15291620;19;20051;-63
2022/07/29 08:17:57;;;;;;;3.65;1.20;;;;;;;21.19;79.17;98322.59;15285854;19;20018;-64
2022/07/29 08:23:02;;;;;;;5.30;1.25;;;;;;;21.39;79.13;98323.19;15286192;19;20046;-62
2022/07/29 08:28:11;;;;;;;6.28;1.40;;;;;;;21.53;76.89;98323.78;15288383;19;20010;-64
2022/07/29 08:33:16;;;;;;;2.08;1.02;;;;;;;21.67;77.57;98323.63;15289438;19;20017;-63
2022/07/29 08:38:21;;;;;;;7.13;1.10;;;;;;;21.78;77.79;98330.16;15289862;19;20362;-64
2022/07/29 08:43:30;;;;;;;6.75;1.27;;;;;;;21.92;75.02;98328.88;15284960;19;20342;-62
2022/07/29 08:48:36;;;;;;;2.28;1.00;;;;;;;22.04;75.80;98334.38;15280232;19;20018;-63
2022/07/29 08:53:44;;;;;;;3.35;1.10;;;;;;;22.29;72.82;98336.00;15289842;19;20015;-63
2022/07/29 08:58:53;;;;;;;3.92;1.25;;;;;;;22.52;71.23;98334.38;15289619;19;20018;-62
2022/07/29 09:04:01;;;;;;;6.50;0.80;;;;;;;22.64;68.25;98332.41;15288527;19;20627;-62
2022/07/29 09:09:06;;;;;;;2.97;1.00;;;;;;;22.84;67.22;98331.19;15282892;19;20015;-60
2022/07/29 09:14:15;;;;;;;9.13;1.23;;;;;;;23.12;65.62;98321.25;15286514;19;20512;-62
2022/07/29 09:19:25;;;;;;;8.32;1.38;;;;;;;23.50;63.75;98317.03;15289454;19;20042;-61
2022/07/29 09:24:40;;;;;;;7.10;1.25;;;;;;;23.90;60.65;98316.06;15280812;19;20014;-63
2022/07/29 09:29:48;;;;;;;4.88;1.30;;;;;;;24.08;58.76;98305.88;15284412;19;20039;-62
2022/07/29 09:34:53;;;;;;;4.88;1.10;;;;;;;24.26;58.43;98302.00;15288496;19;20019;-61
2022/07/29 09:40:13;;;;;;;2.38;0.90;;;;;;;24.45;55.92;98294.28;15290619;19;20096;-62
2022/07/29 09:45:32;;;;;;;4.32;0.93;;;;;;;24.62;54.56;98294.22;15280239;19;20361;-61
2022/07/29 09:50:41;;;;;;;4.53;1.00;;;;;;;24.71;53.43;98292.72;15286663;19;20408;-62
2022/07/29 09:55:51;;;;;;;7.43;1.30;;;;;;;24.87;52.38;98288.22;15278609;19;20553;-59
2022/07/29 10:00:59;;;;;;;3.72;1.10;;;;;;;25.15;50.21;98286.31;15286509;19;20429;-58
2022/07/29 10:06:09;;;;;;;4.22;0.82;;;;;;;25.34;47.69;98277.69;15283457;19;20006;-57
2022/07/29 10:11:19;;;;;;;6.90;1.23;;;;;;;25.60;47.87;98269.63;15280530;19;20018;-62
2022/07/29 10:16:32;;;;;;;3.15;1.02;;;;;;;25.81;45.71;98278.91;15276732;19;20019;-61
2022/07/29 10:21:39;;;;;;;3.55;1.13;;;;;;;26.17;46.13;98278.34;15281204;19;20028;-63
2022/07/29 10:26:45;;;;;;;4.00;0.90;;;;;;;26.54;44.14;98266.38;15274400;19;20022;-63
2022/07/29 10:32:10;;;;;;;4.38;1.10;;;;;;;26.97;42.43;98269.88;15276950;19;20027;-62
2022/07/29 10:37:22;;;;;;;1.92;1.08;;;;;;;27.26;43.59;98261.06;15281325;19;20010;-63
2022/07/29 10:42:30;;;;;;;2.03;0.80;;;;;;;27.34;43.39;98254.16;15275260;19;20030;-62
2022/07/29 10:47:40;;;;;;;;;;;;;;;27.36;40.96;98249.19;15277028;19;20010;-63
2022/07/29 10:52:57;;;;;;;1.55;0.85;;;;;;;27.38;42.43;98242.25;15276804;19;19910;-62
2022/07/29 10:58:19;;;;;;;1.92;0.90;;;;;;;27.37;41.79;98240.59;15273550;19;20462;-64
2022/07/29 11:03:49;;;;;;;4.53;0.90;;;;;;;27.27;42.60;98235.06;15278549;19;20111;-64
2022/07/29 11:09:20;;;;;;;2.08;0.90;;;;;;;27.56;42.80;98242.00;15275770;19;20019;-62
2022/07/29 11:14:58;;;;;;;4.25;0.95;;;;;;;27.74;42.24;98232.31;15274781;19;20393;-64
2022/07/29 11:20:39;;;;;;;1.63;0.98;;;;;;;28.10;42.67;98224.78;15272040;19;20014;-61
2022/07/29 11:25:47;;;;;;;2.95;0.90;;;;;;;28.23;42.73;98220.59;15269988;19;20500;-62
2022/07/29 11:30:56;;;;;;;1.52;0.80;;;;;;;28.35;43.09;98233.28;15266803;19;20006;-63
2022/07/29 11:36:12;;;;;;;5.28;0.95;;;;;;;28.36;41.33;98216.38;15276730;19;20467;-61
2022/07/29 11:41:35;;;;;;;3.75;0.90;;;;;;;28.26;41.54;98230.25;15278473;19;20026;-61
2022/07/29 11:46:49;;;;;;;2.75;1.00;;;;;;;28.30;41.42;98229.41;15275046;19;20019;-63
2022/07/29 11:51:55;;;;;;;6.20;0.93;;;;;;;28.51;42.53;98222.97;15267532;19;20043;-64
2022/07/29 11:57:04;;;;;;;5.68;0.93;;;;;;;28.75;41.71;98223.97;15273778;19;20014;-64
2022/07/29 12:02:09;;;;;;;3.78;0.80;;;;;;;28.85;41.71;98222.25;15270532;19;20018;-62
2022/07/29 12:07:36;;;;;;;4.40;0.90;;;;;;;29.06;41.64;98218.22;15277366;19;20014;-63
2022/07/29 12:12:44;;;;;;;3.15;1.02;;;;;;;29.19;41.27;98215.91;15276020;19;20085;-64
2022/07/29 12:17:51;;;;;;;3.58;1.02;;;;;;;29.02;40.92;98214.38;15275161;19;20018;-63
2022/07/29 12:22:58;;;;;;;6.68;1.00;;;;;;;28.25;41.38;98201.75;15267917;19;20353;-62
2022/07/29 12:28:08;;;;;;;3.45;0.90;;;;;;;28.41;42.17;98208.03;15275030;19;20010;-63
2022/07/29 12:33:23;;;;;;;4.10;1.20;;;;;;;28.17;42.12;98209.81;15272751;19;20019;-62
2022/07/29 12:38:28;;;;;;;2.22;1.00;;;;;;;28.03;42.80;98206.78;15268946;19;20781;-65
2022/07/29 12:43:35;;;;;;;2.00;1.00;;;;;;;28.01;42.95;98203.47;15284479;19;20014;-63
2022/07/29 12:48:42;;;;;;;4.25;0.93;;;;;;;27.86;43.12;98207.09;15287761;19;20026;-62
2022/07/29 12:54:07;;;;;;;5.40;1.10;;;;;;;27.87;43.12;98198.50;15287963;19;20348;-62
2022/07/29 12:59:20;;;;;;;5.15;1.05;;;;;;;27.92;43.69;98198.50;15282591;19;20021;-62
2022/07/29 13:04:29;;;;;;;5.82;1.30;;;;;;;28.01;43.87;98204.28;15287371;19;20658;-62
2022/07/29 13:09:41;;;;;;;5.30;1.10;;;;;;;28.14;43.72;98195.41;15281023;19;20421;-61
2022/07/29 13:14:50;;;;;;;4.70;1.38;;;;;;;28.13;43.29;98190.97;15284517;19;20010;-59
2022/07/29 13:20:08;;;;;;;3.17;1.35;;;;;;;28.12;43.88;98194.84;15286253;19;20015;-62
2022/07/29 13:25:14;;;;;;;2.50;1.10;;;;;;;27.92;43.76;98190.19;15284810;19;20043;-61
2022/07/29 13:30:21;;;;;;;5.55;1.20;;;;;;;27.84;44.17;98194.38;15280708;19;20018;-61
2022/07/29 13:35:29;;;;;;;2.95;1.10;;;;;;;27.75;44.72;98185.00;15285135;19;20018;-61
2022/07/29 13:40:35;;;;;;;2.63;1.00;;;;;;;27.59;44.81;98186.13;15278909;19;20010;-62
2022/07/29 13:45:43;;;;;;;4.47;1.10;;;;;;;27.52;44.74;98175.34;15281349;19;20040;-62
2022/07/29 13:50:48;;;;;;;5.75;1.15;;;;;;;27.42;45.21;98175.31;15280629;19;20019;-62
2022/07/29 13:55:53;;;;;;;5.57;1.30;;;;;;;27.42;45.87;98189.16;15280132;19;20047;-62
2022/07/29 14:01:02;;;;;;;3.55;1.00;;;;;;;27.01;52.61;98199.09;15280415;19;20022;-60
2022/07/29 14:06:07;;;;;;;1.98;0.90;;;;;;;26.86;56.00;98188.84;15277597;19;20349;-62
2022/07/29 14:11:12;;;;;;;1.50;0.63;;;;;;;26.87;58.54;98190.50;15276024;19;20002;-65
2022/07/29 14:16:19;;;;;;;1.52;0.90;;;;;;;26.75;60.73;98184.38;15281546;19;20531;-63
2022/07/29 14:21:25;;;;;;;2.28;0.95;;;;;;;26.81;62.64;98188.00;15279985;19;20022;-65
2022/07/29 14:26:30;;;;;;;2.38;0.90;;;;;;;26.75;63.63;98187.94;15279532;19;20483;-65
2022/07/29 14:31:38;;;;;;;1.70;0.80;;;;;;;26.77;65.66;98193.22;15279359;19;20008;-65
2022/07/29 14:36:43;;;;;;;1.38;0.80;;;;;;;26.76;66.76;98189.63;15278320;19;20015;-64
2022/07/29 14:41:49;;;;;;;0.93;0.70;;;;;;;26.74;67.67;98191.84;15279884;19;20010;-63
2022/07/29 14:46:56;;;;;;;1.88;0.88;;;;;;;26.90;70.20;98192.72;15272699;19;20018;-63
2022/07/29 14:52:01;;;;;;;3.00;0.60;;;;;;;27.20;67.53;98195.78;15278461;19;20022;-64
2022/07/29 14:57:06;;;;;;;4.85;0.80;;;;;;;27.48;64.23;98196.34;15278214;19;20010;-64
2022/07/29 15:02:14;;;;;;;1.52;0.70;;;;;;;27.65;61.92;98194.13;15279341;19;20019;-64
2022/07/29 15:07:19;;;;;;;1.45;0.63;;;;;;;27.56;61.36;98187.50;15274072;19;20018;-64
2022/07/29 15:12:24;;;;;;;2.05;0.50;;;;;;;27.56;60.79;98179.22;15276491;19;20035;-64
2022/07/29 15:17:32;;;;;;;2.15;0.60;;;;;;;27.52;60.31;98173.38;15273474;19;20014;-64
2022/07/29 15:22:37;;;;;;;1.13;0.70;;;;;;;27.66;60.80;98170.88;15275927;19;20022;-66
2022/07/29 15:27:42;;;;;;;1.92;0.75;;;;;;;28.18;59.21;98154.13;15280839;19;20014;-64
2022/07/29 15:32:59;;;;;;;2.70;0.80;;;;;;;28.79;56.60;98151.34;15273842;19;20031;-65
2022/07/29 15:38:04;;;;;;;1.40;0.60;;;;;;;29.16;54.95;98150.75;15274576;19;20014;-64
2022/07/29 15:43:09;;;;;;;3.17;0.70;;;;;;;29.68;52.59;98144.75;15276119;19;20022;-65
2022/07/29 15:48:17;;;;;;;4.13;0.60;;;;;;;29.98;50.96;98138.06;15272868;19;21321;-65
2022/07/29 15:53:22;;;;;;;1.23;0.65;;;;;;;30.16;50.72;98140.34;15274208;19;20022;-64
2022/07/29 15:58:27;;;;;;;3.22;0.80;;;;;;;30.26;49.55;98135.47;15278532;19;20009;-65
2022/07/29 16:03:34;;;;;;;1.77;0.73;;;;;;;30.26;48.45;98137.44;15276882;19;20018;-64
2022/07/29 16:08:40;;;;;;;2.77;0.70;;;;;;;30.29;47.70;98134.88;15274589;19;20026;-64
2022/07/29 16:13:45;;;;;;;1.98;0.80;;;;;;;30.36;46.89;98128.09;15274800;19;20010;-64
2022/07/29 16:18:52;;;;;;;4.88;0.80;;;;;;;30.42;45.57;98130.50;15288970;19;20365;-65
2022/07/29 16:23:57;;;;;;;2.08;0.60;;;;;;;30.60;45.07;98139.22;15283256;19;20011;-64
2022/07/29 16:29:02;;;;;;;1.77;0.60;;;;;;;30.75;44.49;98136.16;15290746;19;20017;-65
2022/07/29 16:34:11;;;;;;;3.08;0.60;;;;;;;30.68;43.79;98137.72;15286063;19;20479;-66
2022/07/29 16:39:18;;;;;;;2.73;0.60;;;;;;;30.48;44.42;98138.78;15289994;19;20014;-64
2022/07/29 16:44:25;;;;;;;2.78;0.65;;;;;;;30.28;44.43;98137.97;15280975;19;20019;-63
2022/07/29 16:49:33;;;;;;;1.05;0.50;;;;;;;30.04;45.08;98138.81;15289823;19;20027;-65
2022/07/29 16:54:39;;;;;;;1.50;0.47;;;;;;;29.76;45.28;98146.88;15279758;19;20003;-66
2022/07/29 16:59:45;;;;;;;1.98;0.80;;;;;;;29.48;45.75;98149.38;15289221;19;20353;-62
2022/07/29 17:04:52;;;;;;;1.33;0.70;;;;;;;29.22;46.53;98143.22;15284510;19;20366;-64
2022/07/29 17:09:57;;;;;;;5.07;0.60;;;;;;;28.90;47.21;98134.31;15286714;19;20018;-62
2022/07/29 17:15:10;;;;;;;2.33;0.50;;;;;;;28.63;47.88;98140.31;15279798;19;20385;-63
2022/07/29 17:20:17;;;;;;;1.92;0.70;;;;;;;28.43;47.65;98133.78;15284856;19;20255;-64
2022/07/29 17:25:23;;;;;;;0.80;0.55;;;;;;;28.12;48.69;98133.94;15274968;19;20021;-62
2022/07/29 17:30:28;;;;;;;1.90;0.70;;;;;;;27.93;49.59;98136.47;15280940;19;20003;-65
2022/07/29 17:40:53;;;;;;;0.73;0.60;;;;;;;27.56;51.41;98126.63;15284304;19;20020;-61
2022/07/29 17:45:58;;;;;;;1.73;0.70;;;;;;;27.43;52.41;98121.66;15275164;19;20018;-61
2022/07/29 17:51:06;;;;;;;0.88;0.60;;;;;;;27.25;53.43;98118.34;15280655;19;20022;-63
2022/07/29 17:56:15;;;;;;;0.98;0.80;;;;;;;27.07;53.80;98120.59;15273124;19;20010;-64
2022/07/29 18:01:23;;;;;;;1.15;0.80;;;;;;;26.88;55.21;98122.22;15281939;19;20027;-61
2022/07/29 18:06:32;;;;;;;3.00;0.70;;;;;;;26.67;55.69;98129.66;15278363;19;20039;-61
2022/07/29 18:11:37;;;;;;;1.50;0.80;;;;;;;26.46;56.92;98137.91;15280336;19;20006;-62
2022/07/29 18:16:48;;;;;;;1.27;0.70;;;;;;;26.25;57.20;98125.97;15278647;19;20340;-63
2022/07/29 18:21:55;;;;;;;2.03;0.60;;;;;;;26.13;58.45;98135.31;15275508;19;20086;-62
2022/07/29 18:27:08;;;;;;;1.55;0.70;;;;;;;25.99;59.88;98134.13;15281340;19;20011;-62
2022/07/29 18:32:13;;;;;;;1.35;0.70;;;;;;;25.87;61.83;98137.13;15273533;19;20010;-58
2022/07/29 18:37:21;;;;;;;1.40;0.68;;;;;;;25.73;62.98;98147.78;15285039;19;20655;-63
2022/07/29 18:42:46;;;;;;;2.42;0.60;;;;;;;25.57;64.21;98146.88;15278442;19;20024;-61
2022/07/29 18:47:51;;;;;;;1.35;0.65;;;;;;;25.47;65.04;98144.88;15283440;19;20038;-62
2022/07/29 18:53:02;;;;;;;2.28;0.68;;;;;;;25.36;67.02;98148.63;15274122;19;20022;-62
2022/07/29 18:58:07;;;;;;;1.23;0.70;;;;;;;25.22;68.89;98148.25;15281819;19;20010;-62
2022/07/29 19:03:12;;;;;;;3.45;0.68;;;;;;;25.07;69.41;98155.31;15272521;19;20031;-62
2022/07/29 19:08:20;;;;;;;1.30;0.60;;;;;;;24.94;71.32;98152.97;15280184;19;20063;-62
2022/07/29 19:13:25;;;;;;;0.68;0.60;;;;;;;24.76;72.21;98157.78;15276719;19;20031;-62
2022/07/29 19:18:30;;;;;;;0.57;0.40;;;;;;;24.59;74.43;98168.03;15278822;19;20022;-63
2022/07/29 19:23:38;;;;;;;3.13;0.60;;;;;;;24.39;76.94;98169.50;15269041;19;20022;-60
2022/07/29 19:29:03;;;;;;;1.23;0.77;;;;;;;24.24;78.95;98174.81;15270321;19;20833;-62
2022/07/29 19:34:08;;;;;;;1.08;0.50;;;;;;;24.08;81.39;98176.53;15270073;19;20039;-60
2022/07/29 19:39:16;;;;;;;2.47;0.68;;;;;;;23.94;85.55;98178.81;15278319;19;20480;-62
2022/07/29 19:44:38;;;;;;;0.85;0.40;;;;;;;23.78;86.75;98180.53;15274692;19;20519;-61
2022/07/29 19:49:43;;;;;;;0.77;0.50;;;;;;;23.57;89.92;98191.25;15275856;19;20029;-61
2022/07/29 19:54:51;;;;;;;0.47;0.40;;;;;;;23.50;93.74;98194.16;15269507;19;20006;-63
2022/07/29 19:59:56;;;;;;;1.23;0.50;;;;;;;23.43;93.44;98193.47;15276135;19;20368;-63
2022/07/29 20:05:02;;;;;;;0.90;0.57;;;;;;;23.30;100.00;98197.41;15268716;19;20023;-61
2022/07/29 20:10:11;;;;;;;0.95;0.60;;;;;;;23.13;100.00;98204.78;15278125;19;20035;-62
2022/07/29 20:15:16;;;;;;;1.52;0.70;;;;;;;22.94;100.00;98208.59;15273634;19;20035;-62
2022/07/29 20:20:22;;;;;;;1.73;0.70;;;;;;;22.78;100.00;98212.97;15274146;19;20039;-62
2022/07/29 20:25:30;;;;;;;0.88;0.60;;;;;;;22.64;100.00;98230.81;15272733;19;20022;-59
2022/07/29 20:30:35;;;;;;;3.53;0.85;;;;;;;22.48;100.00;98240.66;15273031;19;20023;-61
2022/07/29 20:35:42;;;;;;;1.02;0.60;;;;;;;22.17;100.00;98245.50;15272830;19;20055;-61
2022/07/29 20:40:51;;;;;;;0.73;0.43;;;;;;;21.85;100.00;98257.69;15270557;19;20010;-61
2022/07/29 20:45:56;;;;;;;1.70;0.75;;;;;;;21.63;100.00;98267.56;15271165;19;20373;-63
2022/07/29 20:51:01;;;;;;;0.82;0.50;;;;;;;21.47;100.00;98283.59;15272995;19;20314;-60
2022/07/29 20:56:11;;;;;;;1.20;0.60;;;;;;;21.33;100.00;98301.34;15271214;19;20031;-62
2022/07/29 21:01:16;;;;;;;0.82;0.65;;;;;;;21.25;100.00;98303.34;15268647;19;20022;-62
2022/07/29 21:06:21;;;;;;;2.05;0.70;;;;;;;21.17;100.00;98298.19;15283063;19;20025;-62
2022/07/29 21:11:29;;;;;;;0.60;0.60;;;;;;;21.08;100.00;98302.34;15280352;19;20472;-60
2022/07/29 21:16:49;;;;;;;0.52;0.50;;;;;;;21.00;100.00;98308.13;15285106;19;20006;-58
2022/07/29 21:21:54;;;;;;;3.70;0.50;;;;;;;20.86;100.00;98308.34;15262379;19;20018;-60
2022/07/29 21:32:25;;;;;;;2.78;0.50;;;;;;;20.28;100.00;98298.69;15277434;19;20027;-60
2022/07/29 21:37:34;;;;;;;1.52;0.50;;;;;;;19.97;100.00;98301.31;15287109;19;20010;-59
2022/07/29 21:42:42;;;;;;;0.75;0.50;;;;;;;19.76;100.00;98305.25;15277759;19;20022;-58
2022/07/29 21:47:49;;;;;;;0.80;0.60;;;;;;;19.62;100.00;98310.00;14775412;19;10002073;-55
2022/07/29 21:52:54;;;;;;;2.33;0.60;;;;;;;19.39;100.00;98319.63;15279880;19;20026;-58
2022/07/29 21:58:02;;;;;;;1.40;0.70;;;;;;;19.24;100.00;98325.41;15282654;19;20022;-62
2022/07/29 22:03:07;;;;;;;0.52;0.52;;;;;;;19.17;100.00;98331.97;15279153;19;20366;-57
2022/07/29 22:08:12;;;;;;;0.80;0.55;;;;;;;18.98;100.00;98347.41;15279734;19;20010;-58
2022/07/29 22:13:20;;;;;;;0.80;0.63;;;;;;;18.96;100.00;98350.38;15277783;19;20030;-59
2022/07/29 22:18:25;;;;;;;1.25;0.77;;;;;;;18.92;100.00;98343.63;15277215;19;20017;-63
2022/07/29 22:23:31;;;;;;;1.85;0.60;;;;;;;18.86;100.00;98336.31;15284051;19;20653;-57
2022/07/29 22:28:39;;;;;;;1.00;0.80;;;;;;;18.81;100.00;98326.06;15283628;19;20276;-61
2022/07/29 22:33:44;;;;;;;0.85;0.60;;;;;;;18.75;100.00;98326.91;15278574;19;20002;-59
2022/07/29 22:38:51;;;;;;;1.08;0.60;;;;;;;18.67;100.00;98318.97;15275398;19;20019;-60
2022/07/29 22:43:59;;;;;;;0.63;0.60;;;;;;;18.62;100.00;98317.72;15279850;19;20010;-61
2022/07/29 22:49:04;;;;;;;1.73;0.65;;;;;;;18.65;100.00;98316.44;15275672;19;20057;-58
2022/07/29 22:54:09;;;;;;;0.95;0.70;;;;;;;18.59;100.00;98307.22;15277923;19;20010;-57
2022/07/29 22:59:17;;;;;;;0.60;0.60;;;;;;;18.57;100.00;98300.31;15276637;19;20075;-60
2022/07/29 23:04:22;;;;;;;0.93;0.70;;;;;;;18.54;100.00;98309.78;15278229;19;20677;-61
2022/07/29 23:09:29;;;;;;;2.50;0.73;;;;;;;18.52;100.00;98305.59;15274444;19;20039;-61
2022/07/29 23:14:36;;;;;;;1.45;0.70;;;;;;;18.51;100.00;98312.94;15277164;19;20010;-61
2022/07/29 23:19:42;;;;;;;0.85;0.68;;;;;;;18.43;100.00;98300.38;15272575;19;20023;-59
2022/07/29 23:24:48;;;;;;;1.27;0.75;;;;;;;18.33;100.00;98308.16;15274855;19;20015;-56
2022/07/29 23:29:56;;;;;;;0.85;0.70;;;;;;;18.38;100.00;98294.75;15280085;19;20010;-57
2022/07/29 23:35:04;;;;;;;3.00;0.80;;;;;;;18.39;100.00;98298.28;15275499;19;20018;-58
2022/07/29 23:40:11;;;;;;;2.45;0.90;;;;;;;18.38;100.00;98288.44;15280079;19;20033;-58
2022/07/29 23:45:21;;;;;;;1.30;0.75;;;;;;;18.42;100.00;98276.88;15269962;19;20029;-57
2022/07/29 23:50:43;;;;;;;1.00;0.70;;;;;;;18.41;100.00;98272.47;15273412;19;20110;-60
2022/07/29 23:55:49;;;;;;;1.52;0.70;;;;;;;18.23;100.00;98273.16;15273553;19;20014;-60
